Time;durP1;ratioP1;P1;durP2;ratioP2;P2;SDS_P1;SDS_P2;PMS_P1;PMS_P2;Temp;Humidity;BMP_temperature;BMP_pressure;BME280_temperature;BME280_humidity;BME280_pressure;Samples;Min_cycle;Max_cycle;Signal;HPM_P1;HPM_P2
2021/08/26 00:07:02;;;;;;;4.50;3.15;;;;;;;11.63;84.01;95455.63;1758985;81;20992;-66
2021/08/26 00:09:28;;;;;;;5.50;3.27;;;;;;;11.59;84.36;95452.67;1759204;81;21509;-66
2021/08/26 00:11:56;;;;;;;2.83;2.33;;;;;;;11.57;84.87;95445.23;1758985;81;21062;-66
2021/08/26 00:14:24;;;;;;;3.20;2.90;;;;;;;11.55;84.67;95436.47;1759019;81;21011;-66
2021/08/26 00:16:51;;;;;;;4.15;3.27;;;;;;;11.50;84.50;95437.49;1759099;81;21039;-66
2021/08/26 00:19:20;;;;;;;4.35;3.20;;;;;;;11.43;84.60;95433.66;1758732;82;21581;-66
2021/08/26 00:21:46;;;;;;;6.87;3.12;;;;;;;11.44;85.74;95435.42;1758825;81;21516;-66
2021/08/26 00:24:14;;;;;;;3.67;2.80;;;;;;;11.46;86.13;95426.11;1758996;81;20989;-66
2021/08/26 00:26:41;;;;;;;4.70;3.22;;;;;;;11.54;86.11;95427.24;1759093;81;21003;-66
2021/08/26 00:29:07;;;;;;;3.45;2.60;;;;;;;11.51;86.32;95428.19;1758797;81;21040;-65
2021/08/26 00:31:33;;;;;;;4.92;2.85;;;;;;;11.51;86.52;95427.33;1759257;81;20988;-66
2021/08/26 00:34:00;;;;;;;2.58;2.37;;;;;;;11.49;86.75;95430.03;1758972;81;20996;-66
2021/08/26 00:36:27;;;;;;;3.00;2.70;;;;;;;11.48;86.01;95420.34;1758736;81;21034;-66
2021/08/26 00:38:53;;;;;;;3.27;2.45;;;;;;;11.50;85.72;95413.25;1758865;82;20996;-66
2021/08/26 00:41:21;;;;;;;3.30;2.65;;;;;;;11.49;85.29;95416.81;1758976;81;21012;-66
2021/08/26 00:43:47;;;;;;;2.80;2.50;;;;;;;11.45;85.75;95417.78;1758562;81;21067;-66
2021/08/26 00:46:15;;;;;;;2.37;2.17;;;;;;;11.44;85.66;95419.56;1759301;81;20989;-66
2021/08/26 00:48:48;;;;;;;2.52;2.30;;;;;;;11.43;85.67;95419.59;1759060;81;21059;-66
2021/08/26 00:51:16;;;;;;;3.12;2.22;;;;;;;11.40;85.75;95417.89;1759082;81;21027;-66
2021/08/26 00:53:44;;;;;;;2.75;2.25;;;;;;;11.46;86.05;95421.73;1759069;81;21059;-66
2021/08/26 00:56:16;;;;;;;2.50;2.30;;;;;;;11.39;85.31;95413.53;1758889;81;21011;-66
2021/08/26 00:58:48;;;;;;;2.10;1.90;;;;;;;11.31;85.24;95411.50;1758977;81;21035;-66
2021/08/26 01:01:20;;;;;;;3.33;2.35;;;;;;;11.31;84.94;95410.64;1759464;81;20977;-66
2021/08/26 01:03:55;;;;;;;2.25;2.05;;;;;;;11.24;85.19;95405.52;1758904;81;21068;-66
2021/08/26 01:06:48;;;;;;;3.65;2.10;;;;;;;11.38;85.36;95409.59;1758691;81;21494;-66
2021/08/26 01:09:19;;;;;;;3.00;2.10;;;;;;;11.34;84.89;95405.28;1742962;81;21067;-66
2021/08/26 01:11:47;;;;;;;2.42;2.20;;;;;;;11.25;84.51;95402.42;1758870;81;21056;-66
2021/08/26 01:14:16;;;;;;;2.33;1.90;;;;;;;11.24;85.08;95404.66;1758962;81;20996;-66
2021/08/26 01:16:44;;;;;;;3.12;2.50;;;;;;;11.23;84.63;95403.77;1759093;81;21059;-66
2021/08/26 01:19:10;;;;;;;2.72;2.33;;;;;;;11.12;84.47;95403.63;1759233;81;21047;-65
2021/08/26 01:21:37;;;;;;;4.60;2.52;;;;;;;11.05;84.90;95398.94;1758921;81;21467;-66
2021/08/26 01:24:12;;;;;;;9.40;2.27;;;;;;;11.04;85.45;95400.72;1758938;81;21048;-67
2021/08/26 01:26:51;;;;;;;2.60;2.40;;;;;;;11.03;84.93;95402.92;1759218;81;21462;-66
2021/08/26 01:29:20;;;;;;;3.98;2.20;;;;;;;10.93;85.25;95406.68;1759083;81;21023;-66
2021/08/26 01:31:47;;;;;;;2.30;2.10;;;;;;;10.90;85.49;95404.58;1758926;81;21509;-66
2021/08/26 01:34:16;;;;;;;3.30;2.02;;;;;;;10.83;85.55;95406.47;1758998;82;21036;-66
2021/08/26 01:36:42;;;;;;;5.75;3.25;;;;;;;10.73;85.56;95404.48;1758807;81;21031;-66
2021/08/26 01:39:12;;;;;;;3.10;1.57;;;;;;;10.65;85.64;95409.08;1758834;81;21051;-66
2021/08/26 01:41:46;;;;;;;2.20;1.82;;;;;;;10.58;85.66;95413.63;1759056;81;21024;-66
2021/08/26 01:44:27;;;;;;;4.75;2.98;;;;;;;10.48;86.16;95417.80;1758973;81;21060;-65
2021/08/26 01:47:09;;;;;;;2.65;2.15;;;;;;;10.48;86.55;95416.48;1758910;81;21016;-65
2021/08/26 01:49:37;;;;;;;3.37;3.00;;;;;;;10.49;86.74;95412.95;1757584;81;21131;-66
2021/08/26 01:52:06;;;;;;;3.42;2.55;;;;;;;10.52;86.50;95409.79;1758652;81;21079;-66
2021/08/26 01:54:34;;;;;;;4.78;2.67;;;;;;;10.58;86.75;95404.41;1759040;81;21032;-66
2021/08/26 01:57:00;;;;;;;3.30;2.52;;;;;;;10.61;86.52;95401.69;1758896;81;21582;-66
2021/08/26 01:59:27;;;;;;;4.10;2.47;;;;;;;10.62;86.28;95394.64;1758970;81;20988;-66
2021/08/26 02:01:54;;;;;;;5.83;2.80;;;;;;;10.63;86.36;95396.36;1759221;81;20981;-65
2021/08/26 02:04:20;;;;;;;1.77;1.67;;;;;;;10.63;86.06;95392.40;1759193;81;21008;-65
2021/08/26 02:06:47;;;;;;;2.00;1.70;;;;;;;10.61;85.80;95391.59;1758748;81;21004;-66
2021/08/26 02:09:13;;;;;;;2.83;2.08;;;;;;;10.59;85.35;95390.30;1764603;81;21102;-65
2021/08/26 02:11:40;;;;;;;2.92;2.47;;;;;;;10.49;85.47;95394.49;1768670;81;21015;-65
2021/08/26 02:14:06;;;;;;;2.85;2.52;;;;;;;10.45;85.87;95394.99;1768544;81;21019;-65
2021/08/26 02:16:33;;;;;;;3.17;1.75;;;;;;;10.47;85.75;95388.38;1768565;81;21485;-65
2021/08/26 02:18:59;;;;;;;3.47;1.98;;;;;;;10.48;85.69;95390.99;1768295;81;21083;-65
2021/08/26 02:21:28;;;;;;;2.60;2.12;;;;;;;10.44;85.08;95387.99;1768141;81;21003;-66
2021/08/26 02:23:56;;;;;;;3.65;2.08;;;;;;;10.43;84.80;95390.19;1768517;81;21027;-65
2021/08/26 02:26:22;;;;;;;6.30;2.22;;;;;;;10.41;84.83;95386.75;1769118;81;21063;-65
2021/08/26 02:28:49;;;;;;;2.95;2.15;;;;;;;10.44;85.14;95389.31;1768109;81;21095;-66
2021/08/26 02:31:15;;;;;;;4.78;2.50;;;;;;;10.45;85.01;95386.22;1768629;81;21007;-65
2021/08/26 02:33:42;;;;;;;4.85;2.00;;;;;;;10.54;85.32;95382.94;1768281;81;21015;-66
2021/08/26 02:36:08;;;;;;;2.80;1.90;;;;;;;10.62;85.01;95378.80;1768490;81;21007;-65
2021/08/26 02:38:35;;;;;;;2.08;1.82;;;;;;;10.49;84.23;95374.70;1768336;81;20977;-66
2021/08/26 02:41:01;;;;;;;3.75;1.98;;;;;;;10.36;84.43;95376.29;1768259;81;21043;-65
2021/08/26 02:43:28;;;;;;;3.08;2.02;;;;;;;10.33;84.64;95384.70;1768316;81;21098;-65
2021/08/26 02:45:54;;;;;;;3.80;2.50;;;;;;;10.34;85.30;95386.45;1768283;81;20996;-66
2021/08/26 02:48:21;;;;;;;2.33;2.12;;;;;;;10.47;85.52;95381.33;1768162;81;21019;-66
2021/08/26 02:50:47;;;;;;;2.98;2.33;;;;;;;10.56;85.31;95369.72;1768544;81;20996;-65
2021/08/26 02:53:14;;;;;;;3.40;2.10;;;;;;;10.55;84.73;95367.97;1768156;81;21087;-65
2021/08/26 02:55:40;;;;;;;3.45;2.50;;;;;;;10.52;84.65;95367.58;1768606;81;21023;-65
2021/08/26 02:58:07;;;;;;;2.22;1.70;;;;;;;10.49;84.34;95375.57;1768660;81;21012;-66
2021/08/26 03:00:33;;;;;;;2.87;1.98;;;;;;;10.35;83.84;95375.84;1768581;81;21059;-65
2021/08/26 03:03:00;;;;;;;3.45;2.40;;;;;;;10.23;83.72;95377.42;1768484;81;21509;-65
2021/08/26 03:05:26;;;;;;;3.67;2.10;;;;;;;10.15;84.08;95381.53;1768786;81;21019;-66
2021/08/26 03:07:54;;;;;;;5.47;1.90;;;;;;;10.13;84.13;95376.73;1768708;81;20964;-66
2021/08/26 03:10:21;;;;;;;2.05;1.50;;;;;;;10.07;84.14;95380.80;1768106;81;21015;-65
2021/08/26 03:12:47;;;;;;;2.58;2.05;;;;;;;10.00;83.93;95384.45;1736681;81;21003;-65
2021/08/26 03:15:13;;;;;;;3.27;1.92;;;;;;;9.94;84.48;95376.67;1768605;81;21051;-65
2021/08/26 03:17:40;;;;;;;2.75;1.90;;;;;;;9.86;84.82;95381.23;1768296;81;21007;-65
2021/08/26 03:20:08;;;;;;;3.85;2.27;;;;;;;9.78;85.35;95372.58;1768252;81;20980;-65
2021/08/26 03:22:35;;;;;;;2.25;1.90;;;;;;;9.75;85.21;95382.73;1768484;81;21536;-66
2021/08/26 03:25:02;;;;;;;2.33;1.87;;;;;;;9.69;85.05;95377.13;1768506;81;21532;-65
2021/08/26 03:27:29;;;;;;;1.62;1.50;;;;;;;9.61;85.09;95377.73;1768513;81;21043;-65
2021/08/26 03:29:55;;;;;;;4.13;2.23;;;;;;;9.51;84.99;95377.02;1768783;81;21043;-65
2021/08/26 03:32:22;;;;;;;2.57;2.20;;;;;;;9.43;85.43;95376.30;1768316;81;21003;-65
2021/08/26 03:34:48;;;;;;;5.47;2.15;;;;;;;9.39;85.85;95379.02;1768739;81;20952;-65
2021/08/26 03:37:14;;;;;;;4.60;1.60;;;;;;;9.38;85.99;95377.29;1768572;81;21027;-65
2021/08/26 03:39:41;;;;;;;3.40;2.10;;;;;;;9.36;85.54;95375.98;1768273;81;20999;-65
2021/08/26 03:42:08;;;;;;;2.55;1.80;;;;;;;9.33;85.73;95378.68;1768651;81;21023;-66
2021/08/26 03:44:35;;;;;;;2.83;1.77;;;;;;;9.28;85.80;95380.06;1768490;81;21541;-66
2021/08/26 03:47:02;;;;;;;2.58;2.17;;;;;;;9.30;85.76;95384.00;1768667;81;21071;-65
2021/08/26 03:49:29;;;;;;;4.75;1.72;;;;;;;9.28;85.61;95387.97;1768452;81;20996;-65
2021/08/26 03:51:56;;;;;;;1.82;1.65;;;;;;;9.27;85.43;95389.30;1768456;81;21442;-65
2021/08/26 03:54:23;;;;;;;5.87;2.12;;;;;;;9.21;85.45;95382.37;1768114;81;21535;-65
2021/08/26 03:56:49;;;;;;;1.87;1.47;;;;;;;9.20;85.60;95378.02;1768215;81;21537;-66
2021/08/26 03:59:17;;;;;;;2.27;1.67;;;;;;;9.19;86.08;95382.84;1768590;81;21031;-65
2021/08/26 04:01:44;;;;;;;2.27;1.65;;;;;;;9.26;85.94;95381.85;1768651;81;21063;-66
2021/08/26 04:04:11;;;;;;;3.33;1.85;;;;;;;9.34;85.70;95381.72;1768434;81;21552;-66
2021/08/26 04:06:37;;;;;;;3.25;1.70;;;;;;;9.36;85.36;95383.88;1768402;81;21008;-65
2021/08/26 04:09:04;;;;;;;3.07;1.57;;;;;;;9.37;85.20;95379.48;1768233;81;21505;-65
2021/08/26 04:11:31;;;;;;;3.17;2.15;;;;;;;9.41;85.57;95382.03;1768640;81;21012;-66
2021/08/26 04:13:58;;;;;;;2.30;1.60;;;;;;;9.42;85.77;95382.90;1761206;81;21076;-66
2021/08/26 04:16:25;;;;;;;2.70;2.17;;;;;;;9.48;85.62;95384.98;1768468;81;21059;-65
2021/08/26 04:18:51;;;;;;;18.40;5.25;;;;;;;9.48;85.55;95384.13;1768212;80;21094;-66
2021/08/26 04:21:18;;;;;;;5.83;2.02;;;;;;;9.54;85.26;95384.87;1768196;81;21075;-65
2021/08/26 04:23:44;;;;;;;3.83;1.90;;;;;;;9.60;84.97;95387.86;1768284;81;21008;-66
2021/08/26 04:26:10;;;;;;;2.77;2.20;;;;;;;9.56;84.91;95387.48;1768624;81;21038;-65
2021/08/26 04:28:37;;;;;;;3.47;1.90;;;;;;;9.53;85.58;95381.83;1768496;81;21044;-66
2021/08/26 04:31:03;;;;;;;2.33;1.80;;;;;;;9.63;85.39;95387.80;1768508;81;21004;-66
2021/08/26 04:33:30;;;;;;;1.90;1.70;;;;;;;9.73;85.42;95382.78;1768384;81;21039;-66
2021/08/26 04:35:56;;;;;;;4.62;2.75;;;;;;;9.79;85.30;95388.83;1768619;81;21019;-65
2021/08/26 04:38:23;;;;;;;6.85;3.50;;;;;;;9.81;85.71;95391.86;1768347;81;21517;-65
2021/08/26 04:40:49;;;;;;;7.92;4.40;;;;;;;9.92;85.82;95387.23;1768107;81;21027;-65
2021/08/26 04:43:16;;;;;;;6.25;5.33;;;;;;;10.07;85.98;95385.20;1768500;81;21011;-62
2021/08/26 04:45:42;;;;;;;9.28;6.85;;;;;;;10.22;85.74;95384.89;1768538;81;21019;-62
2021/08/26 04:48:09;;;;;;;5.62;4.15;;;;;;;10.32;85.08;95381.66;1768395;80;21533;-63
